Cana, Virginia
Current Conditions -  °F | °C
As of 8:15 AM on Saturday 20 Dec 2014 (Local Time) from KMWK Reporting Station
Overcast Overcast  
Wind Chill: 35°   Ceiling: 8500
Heat Index: 35°   Visibility: 10mi
Dew Point: 27°   Wind: 3mph
Humidity: 72%   Direction: 90°E
Pressure: 30.27"   Gusts: NA
Location:  36.59°N, 80.67°W
Report Text: KMWK 201315Z AUTO 09003KT 10SM OVC085 02/M03 A3027 RMK AO2 T00161029
Loading
Personal Weather Stations






























Interactive Weather Map New forecast layout! Learn more

10-Day Weather Forecast

Advertisements
Track Severe Weather on mobile